sensor_id;sensor_type;location;lat;lon;timestamp;pressure;altitude;pressure_sealevel;temperature;humidity
72038;BME280;59900;50.788;12.904;2024-02-23T00:00:37;94814.16;;;11.25;71.26
72038;BME280;59900;50.788;12.904;2024-02-23T00:03:02;94783.69;;;11.24;71.75
72038;BME280;59900;50.788;12.904;2024-02-23T00:05:27;94821.28;;;11.19;72.49
72038;BME280;59900;50.788;12.904;2024-02-23T00:07:53;94786.59;;;11.17;72.17
72038;BME280;59900;50.788;12.904;2024-02-23T00:10:18;94804.72;;;11.14;72.49
72038;BME280;59900;50.788;12.904;2024-02-23T00:12:43;94795.78;;;11.10;72.55
72038;BME280;59900;50.788;12.904;2024-02-23T00:15:12;94816.03;;;11.04;73.11
72038;BME280;59900;50.788;12.904;2024-02-23T00:17:38;94809.47;;;11.02;73.46
72038;BME280;59900;50.788;12.904;2024-02-23T00:20:04;94805.03;;;10.97;73.59
72038;BME280;59900;50.788;12.904;2024-02-23T00:22:30;94820.75;;;10.92;73.67
72038;BME280;59900;50.788;12.904;2024-02-23T00:24:55;94806.59;;;10.88;73.47
72038;BME280;59900;50.788;12.904;2024-02-23T00:27:20;94828.94;;;10.91;73.94
72038;BME280;59900;50.788;12.904;2024-02-23T00:29:45;94805.00;;;10.87;73.42
72038;BME280;59900;50.788;12.904;2024-02-23T00:32:11;94802.66;;;10.86;73.65
72038;BME280;59900;50.788;12.904;2024-02-23T00:34:36;94807.63;;;10.87;73.48
72038;BME280;59900;50.788;12.904;2024-02-23T00:37:02;94822.09;;;10.85;73.16
72038;BME280;59900;50.788;12.904;2024-02-23T00:39:28;94805.81;;;10.83;72.85
72038;BME280;59900;50.788;12.904;2024-02-23T00:41:53;94828.66;;;10.82;73.04
72038;BME280;59900;50.788;12.904;2024-02-23T00:44:19;94827.88;;;10.82;73.17
72038;BME280;59900;50.788;12.904;2024-02-23T00:46:44;94827.59;;;10.78;72.73
72038;BME280;59900;50.788;12.904;2024-02-23T00:49:09;94836.56;;;10.77;72.89
72038;BME280;59900;50.788;12.904;2024-02-23T00:51:34;94854.91;;;10.72;72.87
72038;BME280;59900;50.788;12.904;2024-02-23T00:54:00;94886.16;;;10.68;73.18
72038;BME280;59900;50.788;12.904;2024-02-23T00:56:25;94868.31;;;10.65;73.49
72038;BME280;59900;50.788;12.904;2024-02-23T00:58:51;94884.84;;;10.66;73.61
72038;BME280;59900;50.788;12.904;2024-02-23T01:01:16;94874.09;;;10.62;73.89
72038;BME280;59900;50.788;12.904;2024-02-23T01:03:41;94870.69;;;10.62;73.96
72038;BME280;59900;50.788;12.904;2024-02-23T01:06:06;94880.63;;;10.55;73.59
72038;BME280;59900;50.788;12.904;2024-02-23T01:08:32;94897.44;;;10.54;74.13
72038;BME280;59900;50.788;12.904;2024-02-23T01:10:57;94918.72;;;10.47;74.06
72038;BME280;59900;50.788;12.904;2024-02-23T01:13:22;94926.03;;;10.45;74.40
72038;BME280;59900;50.788;12.904;2024-02-23T01:15:47;94929.97;;;10.43;74.54
72038;BME280;59900;50.788;12.904;2024-02-23T01:18:13;94940.47;;;10.38;73.94
72038;BME280;59900;50.788;12.904;2024-02-23T01:20:38;94933.09;;;10.40;74.07
72038;BME280;59900;50.788;12.904;2024-02-23T01:23:03;94953.81;;;10.36;73.93
72038;BME280;59900;50.788;12.904;2024-02-23T01:25:28;94981.13;;;10.30;73.39
72038;BME280;59900;50.788;12.904;2024-02-23T01:27:54;94984.50;;;10.26;73.37
72038;BME280;59900;50.788;12.904;2024-02-23T01:30:19;94969.78;;;10.25;73.40
72038;BME280;59900;50.788;12.904;2024-02-23T01:32:45;94982.38;;;10.23;73.00
72038;BME280;59900;50.788;12.904;2024-02-23T01:35:10;94973.72;;;10.17;72.20
72038;BME280;59900;50.788;12.904;2024-02-23T01:37:36;94955.06;;;10.13;72.22
72038;BME280;59900;50.788;12.904;2024-02-23T01:40:02;94979.66;;;10.07;71.75
72038;BME280;59900;50.788;12.904;2024-02-23T01:42:27;94978.59;;;10.03;71.70
72038;BME280;59900;50.788;12.904;2024-02-23T01:44:52;94975.97;;;10.03;71.58
72038;BME280;59900;50.788;12.904;2024-02-23T01:47:18;94974.38;;;10.02;71.80
72038;BME280;59900;50.788;12.904;2024-02-23T01:49:45;94995.09;;;9.99;72.21
72038;BME280;59900;50.788;12.904;2024-02-23T01:52:12;94989.28;;;9.92;71.47
72038;BME280;59900;50.788;12.904;2024-02-23T01:54:37;95006.84;;;9.91;71.38
72038;BME280;59900;50.788;12.904;2024-02-23T01:57:03;95015.75;;;9.85;71.50
72038;BME280;59900;50.788;12.904;2024-02-23T01:59:28;95024.91;;;9.83;71.88
72038;BME280;59900;50.788;12.904;2024-02-23T02:01:55;95018.53;;;9.74;71.41
72038;BME280;59900;50.788;12.904;2024-02-23T02:04:20;95011.19;;;9.71;71.92
72038;BME280;59900;50.788;12.904;2024-02-23T02:06:46;95010.13;;;9.72;71.53
72038;BME280;59900;50.788;12.904;2024-02-23T02:09:12;95006.16;;;9.69;71.74
72038;BME280;59900;50.788;12.904;2024-02-23T02:11:47;95010.59;;;9.64;71.67
72038;BME280;59900;50.788;12.904;2024-02-23T02:14:13;95000.66;;;9.66;71.79
72038;BME280;59900;50.788;12.904;2024-02-23T02:16:38;95004.31;;;9.65;71.70
72038;BME280;59900;50.788;12.904;2024-02-23T02:19:04;95023.41;;;9.60;71.93
72038;BME280;59900;50.788;12.904;2024-02-23T02:21:31;95040.41;;;9.52;71.97
72038;BME280;59900;50.788;12.904;2024-02-23T02:23:56;95083.59;;;9.45;72.41
72038;BME280;59900;50.788;12.904;2024-02-23T02:26:21;95054.69;;;9.40;72.68
72038;BME280;59900;50.788;12.904;2024-02-23T02:28:46;95054.44;;;9.36;72.74
72038;BME280;59900;50.788;12.904;2024-02-23T02:31:12;95067.53;;;9.36;73.15
72038;BME280;59900;50.788;12.904;2024-02-23T02:33:37;95066.44;;;9.32;72.96
72038;BME280;59900;50.788;12.904;2024-02-23T02:36:02;95069.28;;;9.31;73.17
72038;BME280;59900;50.788;12.904;2024-02-23T02:38:28;95075.28;;;9.26;73.64
72038;BME280;59900;50.788;12.904;2024-02-23T02:40:53;95071.81;;;9.21;73.29
72038;BME280;59900;50.788;12.904;2024-02-23T02:43:18;95082.53;;;9.19;73.40
72038;BME280;59900;50.788;12.904;2024-02-23T02:45:43;95084.66;;;9.22;73.63
72038;BME280;59900;50.788;12.904;2024-02-23T02:48:09;95120.63;;;9.27;73.84
72038;BME280;59900;50.788;12.904;2024-02-23T02:50:34;95092.78;;;9.21;73.63
72038;BME280;59900;50.788;12.904;2024-02-23T02:52:59;95090.88;;;9.16;73.75
72038;BME280;59900;50.788;12.904;2024-02-23T02:55:25;95093.50;;;9.16;74.08
72038;BME280;59900;50.788;12.904;2024-02-23T02:57:50;95090.31;;;9.09;73.33
72038;BME280;59900;50.788;12.904;2024-02-23T03:00:15;95106.88;;;8.93;72.89
72038;BME280;59900;50.788;12.904;2024-02-23T03:02:40;95113.94;;;8.92;73.32
72038;BME280;59900;50.788;12.904;2024-02-23T03:05:06;95094.41;;;8.78;73.34
72038;BME280;59900;50.788;12.904;2024-02-23T03:07:31;95114.25;;;8.74;73.23
72038;BME280;59900;50.788;12.904;2024-02-23T03:09:56;95165.94;;;8.62;74.08
72038;BME280;59900;50.788;12.904;2024-02-23T03:12:22;95119.03;;;8.61;74.38
72038;BME280;59900;50.788;12.904;2024-02-23T03:14:47;95135.50;;;8.56;74.60
72038;BME280;59900;50.788;12.904;2024-02-23T03:17:12;95165.94;;;8.45;74.73
72038;BME280;59900;50.788;12.904;2024-02-23T03:19:38;95173.72;;;8.40;74.41
72038;BME280;59900;50.788;12.904;2024-02-23T03:22:04;95174.53;;;8.41;74.29
72038;BME280;59900;50.788;12.904;2024-02-23T03:24:29;95168.66;;;8.34;71.19
72038;BME280;59900;50.788;12.904;2024-02-23T03:26:55;95182.91;;;8.26;70.52
72038;BME280;59900;50.788;12.904;2024-02-23T03:29:21;95170.47;;;8.17;68.89
72038;BME280;59900;50.788;12.904;2024-02-23T03:31:49;95214.78;;;8.07;68.14
72038;BME280;59900;50.788;12.904;2024-02-23T03:34:14;95210.03;;;8.04;68.89
72038;BME280;59900;50.788;12.904;2024-02-23T03:36:39;95216.28;;;8.03;69.09
72038;BME280;59900;50.788;12.904;2024-02-23T03:39:04;95217.28;;;8.02;69.24
72038;BME280;59900;50.788;12.904;2024-02-23T03:41:30;95223.66;;;8.06;70.40
72038;BME280;59900;50.788;12.904;2024-02-23T03:43:56;95241.97;;;8.06;70.80
72038;BME280;59900;50.788;12.904;2024-02-23T03:46:21;95238.78;;;8.04;72.13
72038;BME280;59900;50.788;12.904;2024-02-23T03:48:47;95249.63;;;7.96;72.75
72038;BME280;59900;50.788;12.904;2024-02-23T03:51:12;95255.00;;;7.89;73.26
72038;BME280;59900;50.788;12.904;2024-02-23T03:53:37;95289.81;;;7.78;73.23
72038;BME280;59900;50.788;12.904;2024-02-23T03:56:02;95274.28;;;7.71;71.34
72038;BME280;59900;50.788;12.904;2024-02-23T03:58:28;95274.97;;;7.67;71.05
72038;BME280;59900;50.788;12.904;2024-02-23T04:00:54;95286.69;;;7.64;71.03
72038;BME280;59900;50.788;12.904;2024-02-23T04:03:19;95289.78;;;7.61;70.22
72038;BME280;59900;50.788;12.904;2024-02-23T04:05:44;95289.44;;;7.58;69.35
72038;BME280;59900;50.788;12.904;2024-02-23T04:08:10;95291.50;;;7.56;69.18
72038;BME280;59900;50.788;12.904;2024-02-23T04:10:35;95289.13;;;7.54;69.30
72038;BME280;59900;50.788;12.904;2024-02-23T04:13:01;95285.94;;;7.52;69.51
72038;BME280;59900;50.788;12.904;2024-02-23T04:15:26;95302.97;;;7.55;69.36
72038;BME280;59900;50.788;12.904;2024-02-23T04:17:52;95308.09;;;7.50;69.41
72038;BME280;59900;50.788;12.904;2024-02-23T04:20:17;95306.97;;;7.46;68.74
72038;BME280;59900;50.788;12.904;2024-02-23T04:22:42;95315.50;;;7.41;66.45
72038;BME280;59900;50.788;12.904;2024-02-23T04:25:08;95321.88;;;7.33;65.01
72038;BME280;59900;50.788;12.904;2024-02-23T04:27:33;95303.16;;;7.25;63.67
72038;BME280;59900;50.788;12.904;2024-02-23T04:29:58;95309.59;;;7.22;64.05
72038;BME280;59900;50.788;12.904;2024-02-23T04:32:23;95323.38;;;7.18;63.57
72038;BME280;59900;50.788;12.904;2024-02-23T04:34:49;95330.97;;;7.19;63.49
72038;BME280;59900;50.788;12.904;2024-02-23T04:37:14;95307.91;;;7.16;63.09
72038;BME280;59900;50.788;12.904;2024-02-23T04:39:39;95312.81;;;7.13;62.95
72038;BME280;59900;50.788;12.904;2024-02-23T04:42:07;95354.94;;;7.16;62.26
72038;BME280;59900;50.788;12.904;2024-02-23T04:44:34;95363.56;;;7.17;61.99
72038;BME280;59900;50.788;12.904;2024-02-23T04:46:59;95367.44;;;7.14;62.25
72038;BME280;59900;50.788;12.904;2024-02-23T04:49:24;95368.13;;;7.10;61.36
72038;BME280;59900;50.788;12.904;2024-02-23T04:51:49;95369.13;;;7.09;61.27
72038;BME280;59900;50.788;12.904;2024-02-23T04:54:14;95391.03;;;7.08;62.02
72038;BME280;59900;50.788;12.904;2024-02-23T04:56:40;95378.56;;;7.10;62.02
72038;BME280;59900;50.788;12.904;2024-02-23T04:59:05;95365.16;;;7.06;62.13
72038;BME280;59900;50.788;12.904;2024-02-23T05:01:35;95374.25;;;7.04;62.47
72038;BME280;59900;50.788;12.904;2024-02-23T05:04:00;95373.66;;;7.02;62.46
72038;BME280;59900;50.788;12.904;2024-02-23T05:06:26;95368.66;;;7.00;63.00
72038;BME280;59900;50.788;12.904;2024-02-23T05:08:51;95347.78;;;7.00;63.09
72038;BME280;59900;50.788;12.904;2024-02-23T05:11:16;95356.88;;;6.98;63.54
72038;BME280;59900;50.788;12.904;2024-02-23T05:13:42;95357.53;;;6.93;63.56
72038;BME280;59900;50.788;12.904;2024-02-23T05:16:07;95348.34;;;6.91;63.88
72038;BME280;59900;50.788;12.904;2024-02-23T05:18:32;95353.22;;;6.87;64.00
72038;BME280;59900;50.788;12.904;2024-02-23T05:20:57;95355.50;;;6.84;64.94
72038;BME280;59900;50.788;12.904;2024-02-23T05:23:22;95360.94;;;6.82;65.48
72038;BME280;59900;50.788;12.904;2024-02-23T05:25:48;95357.06;;;6.85;65.89
72038;BME280;59900;50.788;12.904;2024-02-23T05:28:14;95361.84;;;6.88;66.09
72038;BME280;59900;50.788;12.904;2024-02-23T05:30:39;95362.28;;;6.85;66.54
72038;BME280;59900;50.788;12.904;2024-02-23T05:33:05;95363.34;;;6.84;66.83
72038;BME280;59900;50.788;12.904;2024-02-23T05:35:30;95377.41;;;6.83;67.16
72038;BME280;59900;50.788;12.904;2024-02-23T05:37:55;95392.50;;;6.81;67.76
72038;BME280;59900;50.788;12.904;2024-02-23T05:40:21;95393.06;;;6.83;68.00
72038;BME280;59900;50.788;12.904;2024-02-23T05:42:46;95414.63;;;6.78;67.55
72038;BME280;59900;50.788;12.904;2024-02-23T05:45:11;95413.22;;;6.75;67.32
72038;BME280;59900;50.788;12.904;2024-02-23T05:47:38;95420.75;;;6.72;67.68
72038;BME280;59900;50.788;12.904;2024-02-23T05:50:04;95418.13;;;6.72;67.96
72038;BME280;59900;50.788;12.904;2024-02-23T05:52:33;95433.56;;;6.73;67.78
72038;BME280;59900;50.788;12.904;2024-02-23T05:54:58;95428.25;;;6.80;68.54
72038;BME280;59900;50.788;12.904;2024-02-23T05:57:25;95436.44;;;6.84;68.31
72038;BME280;59900;50.788;12.904;2024-02-23T05:59:51;95439.97;;;6.89;68.24
72038;BME280;59900;50.788;12.904;2024-02-23T06:02:16;95448.00;;;6.88;68.25
72038;BME280;59900;50.788;12.904;2024-02-23T06:04:41;95459.03;;;6.90;67.72
72038;BME280;59900;50.788;12.904;2024-02-23T06:07:07;95453.81;;;6.90;67.59
72038;BME280;59900;50.788;12.904;2024-02-23T06:09:32;95472.53;;;6.87;67.20
72038;BME280;59900;50.788;12.904;2024-02-23T06:11:57;95478.75;;;6.86;67.32
72038;BME280;59900;50.788;12.904;2024-02-23T06:14:22;95484.63;;;6.81;66.96
72038;BME280;59900;50.788;12.904;2024-02-23T06:16:48;95473.41;;;6.81;66.54
72038;BME280;59900;50.788;12.904;2024-02-23T06:19:14;95470.56;;;6.82;66.51
72038;BME280;59900;50.788;12.904;2024-02-23T06:21:39;95466.59;;;6.80;66.66
72038;BME280;59900;50.788;12.904;2024-02-23T06:24:05;95480.31;;;6.75;66.04
72038;BME280;59900;50.788;12.904;2024-02-23T06:26:30;95479.53;;;6.74;66.14
72038;BME280;59900;50.788;12.904;2024-02-23T06:28:55;95493.59;;;6.73;65.89
72038;BME280;59900;50.788;12.904;2024-02-23T06:31:20;95500.84;;;6.71;66.00
72038;BME280;59900;50.788;12.904;2024-02-23T06:33:46;95479.38;;;6.69;65.37
72038;BME280;59900;50.788;12.904;2024-02-23T06:36:14;95481.78;;;6.71;65.40
72038;BME280;59900;50.788;12.904;2024-02-23T06:38:39;95492.66;;;6.68;65.06
72038;BME280;59900;50.788;12.904;2024-02-23T06:41:04;95485.84;;;6.67;65.25
72038;BME280;59900;50.788;12.904;2024-02-23T06:43:30;95485.03;;;6.66;65.02
72038;BME280;59900;50.788;12.904;2024-02-23T06:45:56;95479.59;;;6.68;64.89
72038;BME280;59900;50.788;12.904;2024-02-23T06:48:21;95482.78;;;6.70;64.88
72038;BME280;59900;50.788;12.904;2024-02-23T06:50:46;95478.94;;;6.72;64.71
72038;BME280;59900;50.788;12.904;2024-02-23T06:53:12;95499.25;;;6.70;64.23
72038;BME280;59900;50.788;12.904;2024-02-23T06:55:37;95495.84;;;6.70;64.66
72038;BME280;59900;50.788;12.904;2024-02-23T06:58:02;95501.22;;;6.75;64.21
72038;BME280;59900;50.788;12.904;2024-02-23T07:00:30;95521.84;;;6.76;64.19
72038;BME280;59900;50.788;12.904;2024-02-23T07:02:55;95499.38;;;6.75;63.51
72038;BME280;59900;50.788;12.904;2024-02-23T07:05:23;95515.03;;;6.75;63.91
72038;BME280;59900;50.788;12.904;2024-02-23T07:07:49;95534.53;;;6.73;64.32
72038;BME280;59900;50.788;12.904;2024-02-23T07:10:14;95535.91;;;6.75;64.48
72038;BME280;59900;50.788;12.904;2024-02-23T07:12:39;95546.94;;;6.78;64.78
72038;BME280;59900;50.788;12.904;2024-02-23T07:15:05;95539.69;;;6.80;64.32
72038;BME280;59900;50.788;12.904;2024-02-23T07:17:30;95544.66;;;6.81;64.91
72038;BME280;59900;50.788;12.904;2024-02-23T07:19:55;95557.53;;;6.83;64.97
72038;BME280;59900;50.788;12.904;2024-02-23T07:22:28;95560.94;;;6.83;64.86
72038;BME280;59900;50.788;12.904;2024-02-23T07:24:53;95562.75;;;6.83;65.26
72038;BME280;59900;50.788;12.904;2024-02-23T07:27:18;95561.13;;;6.82;65.75
72038;BME280;59900;50.788;12.904;2024-02-23T07:29:44;95565.00;;;6.79;66.19
72038;BME280;59900;50.788;12.904;2024-02-23T07:32:09;95567.59;;;6.79;66.45
72038;BME280;59900;50.788;12.904;2024-02-23T07:34:35;95567.84;;;6.78;67.09
72038;BME280;59900;50.788;12.904;2024-02-23T07:37:00;95590.53;;;6.77;66.82
72038;BME280;59900;50.788;12.904;2024-02-23T07:39:25;95595.00;;;6.70;67.01
72038;BME280;59900;50.788;12.904;2024-02-23T07:41:51;95582.84;;;6.64;67.35
72038;BME280;59900;50.788;12.904;2024-02-23T07:44:16;95592.47;;;6.63;67.28
72038;BME280;59900;50.788;12.904;2024-02-23T07:46:41;95579.44;;;6.63;67.46
72038;BME280;59900;50.788;12.904;2024-02-23T07:49:07;95586.69;;;6.61;67.30
72038;BME280;59900;50.788;12.904;2024-02-23T07:51:32;95592.47;;;6.63;67.01
72038;BME280;59900;50.788;12.904;2024-02-23T07:53:57;95594.88;;;6.65;67.57
72038;BME280;59900;50.788;12.904;2024-02-23T07:56:22;95600.53;;;6.62;67.55
72038;BME280;59900;50.788;12.904;2024-02-23T07:58:48;95603.16;;;6.62;67.47
72038;BME280;59900;50.788;12.904;2024-02-23T08:01:16;95604.94;;;6.61;67.21
72038;BME280;59900;50.788;12.904;2024-02-23T08:03:41;95613.94;;;6.65;67.16
72038;BME280;59900;50.788;12.904;2024-02-23T08:06:07;95615.91;;;6.70;67.30
72038;BME280;59900;50.788;12.904;2024-02-23T08:08:32;95625.09;;;6.72;67.13
72038;BME280;59900;50.788;12.904;2024-02-23T08:11:00;95612.78;;;6.80;67.18
72038;BME280;59900;50.788;12.904;2024-02-23T08:13:26;95621.78;;;6.84;66.74
72038;BME280;59900;50.788;12.904;2024-02-23T08:15:51;95619.59;;;6.81;66.37
72038;BME280;59900;50.788;12.904;2024-02-23T08:18:17;95619.25;;;6.77;66.49
72038;BME280;59900;50.788;12.904;2024-02-23T08:20:42;95615.97;;;6.82;66.27
72038;BME280;59900;50.788;12.904;2024-02-23T08:23:07;95613.34;;;6.82;65.87
72038;BME280;59900;50.788;12.904;2024-02-23T08:25:34;95606.69;;;6.86;65.72
72038;BME280;59900;50.788;12.904;2024-02-23T08:27:59;95608.34;;;6.80;65.33
72038;BME280;59900;50.788;12.904;2024-02-23T08:30:24;95605.53;;;6.82;65.30
72038;BME280;59900;50.788;12.904;2024-02-23T08:32:49;95605.06;;;6.85;65.07
72038;BME280;59900;50.788;12.904;2024-02-23T08:35:15;95603.06;;;6.87;65.28
72038;BME280;59900;50.788;12.904;2024-02-23T08:37:40;95608.06;;;6.88;64.76
72038;BME280;59900;50.788;12.904;2024-02-23T08:40:07;95614.88;;;6.89;64.18
72038;BME280;59900;50.788;12.904;2024-02-23T08:42:33;95612.63;;;6.93;64.28
72038;BME280;59900;50.788;12.904;2024-02-23T08:44:58;95622.16;;;6.99;63.96
72038;BME280;59900;50.788;12.904;2024-02-23T08:47:23;95635.38;;;7.04;63.95
72038;BME280;59900;50.788;12.904;2024-02-23T08:49:49;95640.97;;;7.07;63.94
72038;BME280;59900;50.788;12.904;2024-02-23T08:52:15;95644.81;;;7.05;63.47
72038;BME280;59900;50.788;12.904;2024-02-23T08:54:40;95638.38;;;7.07;62.51
72038;BME280;59900;50.788;12.904;2024-02-23T08:57:05;95648.09;;;7.00;61.46
72038;BME280;59900;50.788;12.904;2024-02-23T08:59:30;95652.56;;;6.93;61.42
72038;BME280;59900;50.788;12.904;2024-02-23T09:01:56;95649.75;;;6.95;60.87
72038;BME280;59900;50.788;12.904;2024-02-23T09:04:21;95652.13;;;6.96;60.91
72038;BME280;59900;50.788;12.904;2024-02-23T09:06:46;95658.16;;;6.97;60.62
72038;BME280;59900;50.788;12.904;2024-02-23T09:09:12;95661.00;;;6.95;60.11
72038;BME280;59900;50.788;12.904;2024-02-23T09:11:37;95654.03;;;6.89;59.85
72038;BME280;59900;50.788;12.904;2024-02-23T09:14:02;95666.44;;;6.94;60.20
72038;BME280;59900;50.788;12.904;2024-02-23T09:16:28;95665.44;;;6.95;59.96
72038;BME280;59900;50.788;12.904;2024-02-23T09:18:53;95671.22;;;6.97;60.36
72038;BME280;59900;50.788;12.904;2024-02-23T09:21:18;95672.38;;;7.01;60.28
72038;BME280;59900;50.788;12.904;2024-02-23T09:23:44;95664.47;;;7.07;60.42
72038;BME280;59900;50.788;12.904;2024-02-23T09:26:09;95652.63;;;7.05;59.06
72038;BME280;59900;50.788;12.904;2024-02-23T09:28:38;95645.97;;;7.09;58.91
72038;BME280;59900;50.788;12.904;2024-02-23T09:31:05;95647.34;;;7.11;58.91
72038;BME280;59900;50.788;12.904;2024-02-23T09:33:31;95649.16;;;7.11;58.88
72038;BME280;59900;50.788;12.904;2024-02-23T09:35:57;95645.56;;;7.23;59.92
72038;BME280;59900;50.788;12.904;2024-02-23T09:38:22;95642.53;;;7.26;59.60
72038;BME280;59900;50.788;12.904;2024-02-23T09:40:50;95654.91;;;7.31;59.54
72038;BME280;59900;50.788;12.904;2024-02-23T09:43:16;95659.38;;;7.30;59.22
72038;BME280;59900;50.788;12.904;2024-02-23T09:45:42;95664.28;;;7.39;59.13
72038;BME280;59900;50.788;12.904;2024-02-23T09:48:09;95674.94;;;7.37;58.44
72038;BME280;59900;50.788;12.904;2024-02-23T09:50:37;95675.97;;;7.36;57.82
72038;BME280;59900;50.788;12.904;2024-02-23T09:53:03;95685.25;;;7.32;58.21
72038;BME280;59900;50.788;12.904;2024-02-23T09:55:29;95682.44;;;7.33;58.53
72038;BME280;59900;50.788;12.904;2024-02-23T09:57:57;95694.91;;;7.31;58.60
72038;BME280;59900;50.788;12.904;2024-02-23T10:00:23;95682.47;;;7.15;58.07
72038;BME280;59900;50.788;12.904;2024-02-23T10:02:49;95688.75;;;7.26;57.86
72038;BME280;59900;50.788;12.904;2024-02-23T10:05:16;95695.44;;;7.22;58.07
72038;BME280;59900;50.788;12.904;2024-02-23T10:07:42;95702.63;;;7.26;57.97
72038;BME280;59900;50.788;12.904;2024-02-23T10:10:08;95700.69;;;7.22;57.83
72038;BME280;59900;50.788;12.904;2024-02-23T10:12:35;95689.50;;;7.15;57.73
72038;BME280;59900;50.788;12.904;2024-02-23T10:15:01;95690.50;;;7.14;57.78
72038;BME280;59900;50.788;12.904;2024-02-23T10:17:29;95697.41;;;7.08;58.00
72038;BME280;59900;50.788;12.904;2024-02-23T10:19:54;95700.75;;;7.15;58.05
72038;BME280;59900;50.788;12.904;2024-02-23T10:22:19;95710.53;;;7.20;57.32
72038;BME280;59900;50.788;12.904;2024-02-23T10:24:46;95710.59;;;7.13;57.11
72038;BME280;59900;50.788;12.904;2024-02-23T10:27:11;95717.94;;;7.05;57.51
72038;BME280;59900;50.788;12.904;2024-02-23T10:29:37;95703.72;;;7.01;57.34
72038;BME280;59900;50.788;12.904;2024-02-23T10:32:02;95705.47;;;7.07;58.04
72038;BME280;59900;50.788;12.904;2024-02-23T10:34:29;95708.66;;;7.09;57.83
72038;BME280;59900;50.788;12.904;2024-02-23T10:36:55;95710.81;;;7.12;57.82
72038;BME280;59900;50.788;12.904;2024-02-23T10:39:24;95710.25;;;7.10;57.80
72038;BME280;59900;50.788;12.904;2024-02-23T10:42:00;95704.38;;;7.14;58.01
72038;BME280;59900;50.788;12.904;2024-02-23T10:44:28;95721.91;;;7.25;58.42
72038;BME280;59900;50.788;12.904;2024-02-23T10:46:55;95734.09;;;7.31;58.17
72038;BME280;59900;50.788;12.904;2024-02-23T10:49:23;95734.69;;;7.33;57.82
72038;BME280;59900;50.788;12.904;2024-02-23T10:51:51;95739.19;;;7.26;57.22
72038;BME280;59900;50.788;12.904;2024-02-23T10:54:17;95753.56;;;7.17;57.58
72038;BME280;59900;50.788;12.904;2024-02-23T10:56:47;95776.13;;;7.12;57.58
72038;BME280;59900;50.788;12.904;2024-02-23T10:59:13;95742.91;;;7.19;57.90
72038;BME280;59900;50.788;12.904;2024-02-23T11:01:39;95747.03;;;7.26;57.30
72038;BME280;59900;50.788;12.904;2024-02-23T11:04:06;95734.19;;;7.25;57.44
72038;BME280;59900;50.788;12.904;2024-02-23T11:06:33;95734.63;;;7.22;57.09
72038;BME280;59900;50.788;12.904;2024-02-23T11:09:06;95719.53;;;7.24;56.99
72038;BME280;59900;50.788;12.904;2024-02-23T11:11:33;95724.97;;;7.22;57.74
72038;BME280;59900;50.788;12.904;2024-02-23T11:14:02;95733.16;;;7.26;57.59
72038;BME280;59900;50.788;12.904;2024-02-23T11:16:28;95741.00;;;7.26;57.97
72038;BME280;59900;50.788;12.904;2024-02-23T11:19:06;95740.00;;;7.27;57.90
72038;BME280;59900;50.788;12.904;2024-02-23T11:21:35;95739.63;;;7.23;57.85
72038;BME280;59900;50.788;12.904;2024-02-23T11:24:05;95723.81;;;7.18;58.05
72038;BME280;59900;50.788;12.904;2024-02-23T11:26:31;95721.34;;;7.23;58.24
72038;BME280;59900;50.788;12.904;2024-02-23T11:29:09;95719.66;;;7.29;57.93
72038;BME280;59900;50.788;12.904;2024-02-23T11:31:35;95727.50;;;7.29;56.46
72038;BME280;59900;50.788;12.904;2024-02-23T11:34:00;95749.28;;;7.23;56.41
72038;BME280;59900;50.788;12.904;2024-02-23T11:36:29;95716.78;;;7.19;56.40
72038;BME280;59900;50.788;12.904;2024-02-23T11:38:59;95722.78;;;7.19;57.22
72038;BME280;59900;50.788;12.904;2024-02-23T11:41:26;95730.91;;;7.29;57.50
72038;BME280;59900;50.788;12.904;2024-02-23T11:43:53;95729.47;;;7.33;56.73
72038;BME280;59900;50.788;12.904;2024-02-23T11:46:19;95722.28;;;7.29;56.31
72038;BME280;59900;50.788;12.904;2024-02-23T11:48:45;95718.22;;;7.33;56.89
72038;BME280;59900;50.788;12.904;2024-02-23T11:51:15;95722.28;;;7.29;56.67
72038;BME280;59900;50.788;12.904;2024-02-23T11:53:40;95703.34;;;7.33;56.72
72038;BME280;59900;50.788;12.904;2024-02-23T11:56:06;95708.13;;;7.37;56.48
72038;BME280;59900;50.788;12.904;2024-02-23T11:58:34;95697.25;;;7.40;56.06
72038;BME280;59900;50.788;12.904;2024-02-23T12:01:00;95705.66;;;7.42;56.36
72038;BME280;59900;50.788;12.904;2024-02-23T12:03:30;95720.16;;;7.38;56.25
72038;BME280;59900;50.788;12.904;2024-02-23T12:05:57;95712.56;;;7.36;55.95
72038;BME280;59900;50.788;12.904;2024-02-23T12:08:23;95711.06;;;7.40;56.40
72038;BME280;59900;50.788;12.904;2024-02-23T12:10:51;95722.94;;;7.43;56.58
72038;BME280;59900;50.788;12.904;2024-02-23T12:13:16;95721.69;;;7.45;57.11
72038;BME280;59900;50.788;12.904;2024-02-23T12:15:41;95718.31;;;7.56;57.12
72038;BME280;59900;50.788;12.904;2024-02-23T12:18:10;95714.22;;;7.60;57.16
72038;BME280;59900;50.788;12.904;2024-02-23T12:20:35;95713.09;;;7.56;56.46
72038;BME280;59900;50.788;12.904;2024-02-23T12:23:01;95702.41;;;7.58;57.02
72038;BME280;59900;50.788;12.904;2024-02-23T12:25:26;95704.94;;;7.64;57.30
72038;BME280;59900;50.788;12.904;2024-02-23T12:27:56;95717.00;;;7.65;57.52
72038;BME280;59900;50.788;12.904;2024-02-23T12:30:22;95716.56;;;7.68;57.66
72038;BME280;59900;50.788;12.904;2024-02-23T12:32:47;95711.88;;;7.70;57.53
72038;BME280;59900;50.788;12.904;2024-02-23T12:35:14;95705.66;;;7.71;57.78
72038;BME280;59900;50.788;12.904;2024-02-23T12:37:40;95704.84;;;7.71;57.92
72038;BME280;59900;50.788;12.904;2024-02-23T12:40:07;95712.38;;;7.79;58.19
72038;BME280;59900;50.788;12.904;2024-02-23T12:42:32;95715.09;;;7.84;58.39
72038;BME280;59900;50.788;12.904;2024-02-23T12:44:57;95712.66;;;7.89;58.51
72038;BME280;59900;50.788;12.904;2024-02-23T12:47:22;95709.44;;;7.87;58.42
72038;BME280;59900;50.788;12.904;2024-02-23T12:49:48;95710.25;;;7.87;58.51